sensor_id;sensor_type;location;lat;lon;timestamp;temperature;humidity
50758;DHT22;36732;47.980;11.652;2023-09-19T00:00:40;20.50;62.60
50758;DHT22;36732;47.980;11.652;2023-09-19T00:03:07;20.50;62.60
50758;DHT22;36732;47.980;11.652;2023-09-19T00:05:37;20.50;62.60
50758;DHT22;36732;47.980;11.652;2023-09-19T00:08:10;20.50;62.70
50758;DHT22;36732;47.980;11.652;2023-09-19T00:10:36;20.50;62.70
50758;DHT22;36732;47.980;11.652;2023-09-19T00:13:03;20.50;62.70
50758;DHT22;36732;47.980;11.652;2023-09-19T00:15:38;20.50;62.70
50758;DHT22;36732;47.980;11.652;2023-09-19T00:18:06;20.50;62.80
50758;DHT22;36732;47.980;11.652;2023-09-19T00:20:36;20.50;62.70
50758;DHT22;36732;47.980;11.652;2023-09-19T00:23:02;20.50;62.80
50758;DHT22;36732;47.980;11.652;2023-09-19T00:25:29;20.50;62.80
50758;DHT22;36732;47.980;11.652;2023-09-19T00:27:55;20.50;62.80
50758;DHT22;36732;47.980;11.652;2023-09-19T00:30:21;20.50;62.70
50758;DHT22;36732;47.980;11.652;2023-09-19T00:32:50;20.50;62.80
50758;DHT22;36732;47.980;11.652;2023-09-19T00:35:23;20.50;62.70
50758;DHT22;36732;47.980;11.652;2023-09-19T00:37:53;20.50;62.80
50758;DHT22;36732;47.980;11.652;2023-09-19T00:40:19;20.50;62.90
50758;DHT22;36732;47.980;11.652;2023-09-19T00:42:47;20.50;62.70
50758;DHT22;36732;47.980;11.652;2023-09-19T00:45:15;20.50;62.70
50758;DHT22;36732;47.980;11.652;2023-09-19T00:47:48;20.50;62.70
50758;DHT22;36732;47.980;11.652;2023-09-19T00:50:17;20.50;62.60
50758;DHT22;36732;47.980;11.652;2023-09-19T00:52:44;20.50;62.50
50758;DHT22;36732;47.980;11.652;2023-09-19T00:55:12;20.50;62.50
50758;DHT22;36732;47.980;11.652;2023-09-19T00:57:39;20.50;62.50
50758;DHT22;36732;47.980;11.652;2023-09-19T01:00:06;20.50;62.50
50758;DHT22;36732;47.980;11.652;2023-09-19T01:02:34;20.50;62.40
50758;DHT22;36732;47.980;11.652;2023-09-19T01:05:01;20.50;62.40
50758;DHT22;36732;47.980;11.652;2023-09-19T01:07:30;20.50;63.10
50758;DHT22;36732;47.980;11.652;2023-09-19T01:09:57;20.50;62.30
50758;DHT22;36732;47.980;11.652;2023-09-19T01:19:01;20.50;62.30
50758;DHT22;36732;47.980;11.652;2023-09-19T01:22:02;20.50;62.30
50758;DHT22;36732;47.980;11.652;2023-09-19T01:28:31;20.50;62.20
50758;DHT22;36732;47.980;11.652;2023-09-19T01:31:04;20.50;62.10
50758;DHT22;36732;47.980;11.652;2023-09-19T01:33:58;20.50;62.10
50758;DHT22;36732;47.980;11.652;2023-09-19T01:36:30;20.50;62.00
50758;DHT22;36732;47.980;11.652;2023-09-19T01:39:05;20.50;62.00
50758;DHT22;36732;47.980;11.652;2023-09-19T01:47:06;20.50;61.60
50758;DHT22;36732;47.980;11.652;2023-09-19T01:50:24;20.50;61.70
50758;DHT22;36732;47.980;11.652;2023-09-19T01:53:10;20.50;61.50
50758;DHT22;36732;47.980;11.652;2023-09-19T01:55:44;20.50;61.60
50758;DHT22;36732;47.980;11.652;2023-09-19T01:58:21;20.50;62.00
50758;DHT22;36732;47.980;11.652;2023-09-19T02:00:56;20.50;62.40
50758;DHT22;36732;47.980;11.652;2023-09-19T02:03:24;20.50;62.50
50758;DHT22;36732;47.980;11.652;2023-09-19T02:05:53;20.50;62.80
50758;DHT22;36732;47.980;11.652;2023-09-19T02:08:20;20.50;63.00
50758;DHT22;36732;47.980;11.652;2023-09-19T02:10:49;20.50;63.00
50758;DHT22;36732;47.980;11.652;2023-09-19T02:13:16;20.50;63.20
50758;DHT22;36732;47.980;11.652;2023-09-19T02:15:43;20.50;63.40
50758;DHT22;36732;47.980;11.652;2023-09-19T02:18:14;20.50;63.40
50758;DHT22;36732;47.980;11.652;2023-09-19T02:20:41;20.50;63.40
50758;DHT22;36732;47.980;11.652;2023-09-19T02:23:08;20.40;63.40
50758;DHT22;36732;47.980;11.652;2023-09-19T02:25:34;20.50;63.60
50758;DHT22;36732;47.980;11.652;2023-09-19T02:28:01;20.40;63.50
50758;DHT22;36732;47.980;11.652;2023-09-19T02:30:28;20.40;63.60
50758;DHT22;36732;47.980;11.652;2023-09-19T02:32:54;20.40;63.60
50758;DHT22;36732;47.980;11.652;2023-09-19T02:35:20;20.40;63.60
50758;DHT22;36732;47.980;11.652;2023-09-19T02:37:46;20.40;63.70
50758;DHT22;36732;47.980;11.652;2023-09-19T02:40:13;20.40;63.70
50758;DHT22;36732;47.980;11.652;2023-09-19T02:42:46;20.40;63.80
50758;DHT22;36732;47.980;11.652;2023-09-19T02:45:14;20.40;63.90
50758;DHT22;36732;47.980;11.652;2023-09-19T02:47:44;20.40;63.90
50758;DHT22;36732;47.980;11.652;2023-09-19T02:50:10;20.40;63.90
50758;DHT22;36732;47.980;11.652;2023-09-19T02:52:36;20.40;64.00
50758;DHT22;36732;47.980;11.652;2023-09-19T02:55:03;20.40;63.90
50758;DHT22;36732;47.980;11.652;2023-09-19T02:57:31;20.30;63.90
50758;DHT22;36732;47.980;11.652;2023-09-19T02:59:59;20.40;63.80
50758;DHT22;36732;47.980;11.652;2023-09-19T03:02:26;20.30;63.80
50758;DHT22;36732;47.980;11.652;2023-09-19T03:04:53;20.30;63.80
50758;DHT22;36732;47.980;11.652;2023-09-19T03:07:19;20.30;63.80
50758;DHT22;36732;47.980;11.652;2023-09-19T03:09:46;20.30;63.70
50758;DHT22;36732;47.980;11.652;2023-09-19T03:12:11;20.30;63.80
50758;DHT22;36732;47.980;11.652;2023-09-19T03:14:41;20.30;63.80
50758;DHT22;36732;47.980;11.652;2023-09-19T03:17:07;20.30;63.70
50758;DHT22;36732;47.980;11.652;2023-09-19T03:19:34;20.30;63.70
50758;DHT22;36732;47.980;11.652;2023-09-19T03:22:00;20.30;63.70
50758;DHT22;36732;47.980;11.652;2023-09-19T03:24:26;20.30;63.70
50758;DHT22;36732;47.980;11.652;2023-09-19T03:26:52;20.30;63.70
50758;DHT22;36732;47.980;11.652;2023-09-19T03:29:17;20.30;63.70
50758;DHT22;36732;47.980;11.652;2023-09-19T03:31:43;20.30;63.70
50758;DHT22;36732;47.980;11.652;2023-09-19T03:34:09;20.30;63.60
50758;DHT22;36732;47.980;11.652;2023-09-19T03:36:35;20.30;63.60
50758;DHT22;36732;47.980;11.652;2023-09-19T03:39:02;20.30;63.60
50758;DHT22;36732;47.980;11.652;2023-09-19T03:41:30;20.30;63.70
50758;DHT22;36732;47.980;11.652;2023-09-19T03:43:57;20.30;63.70
50758;DHT22;36732;47.980;11.652;2023-09-19T03:46:22;20.30;63.60
50758;DHT22;36732;47.980;11.652;2023-09-19T03:48:48;20.30;63.60
50758;DHT22;36732;47.980;11.652;2023-09-19T03:51:14;20.30;63.70
50758;DHT22;36732;47.980;11.652;2023-09-19T03:53:40;20.30;63.60
50758;DHT22;36732;47.980;11.652;2023-09-19T03:56:05;20.30;63.60
50758;DHT22;36732;47.980;11.652;2023-09-19T03:58:31;20.30;63.60
50758;DHT22;36732;47.980;11.652;2023-09-19T04:00:57;20.20;63.60
50758;DHT22;36732;47.980;11.652;2023-09-19T04:03:24;20.20;63.50
50758;DHT22;36732;47.980;11.652;2023-09-19T04:05:59;20.20;63.50
50758;DHT22;36732;47.980;11.652;2023-09-19T04:08:26;20.20;63.60
50758;DHT22;36732;47.980;11.652;2023-09-19T04:10:51;20.20;63.60
50758;DHT22;36732;47.980;11.652;2023-09-19T04:13:18;20.20;63.60
50758;DHT22;36732;47.980;11.652;2023-09-19T04:15:44;20.20;63.60
50758;DHT22;36732;47.980;11.652;2023-09-19T04:18:11;20.20;63.60
50758;DHT22;36732;47.980;11.652;2023-09-19T04:20:37;20.20;63.60
50758;DHT22;36732;47.980;11.652;2023-09-19T04:23:03;20.20;63.60
50758;DHT22;36732;47.980;11.652;2023-09-19T04:25:30;20.20;63.50
50758;DHT22;36732;47.980;11.652;2023-09-19T04:27:57;20.20;63.50
50758;DHT22;36732;47.980;11.652;2023-09-19T04:30:23;20.20;63.50
50758;DHT22;36732;47.980;11.652;2023-09-19T04:32:48;20.20;63.50
50758;DHT22;36732;47.980;11.652;2023-09-19T04:35:16;20.20;63.50
50758;DHT22;36732;47.980;11.652;2023-09-19T04:37:43;20.20;63.50
50758;DHT22;36732;47.980;11.652;2023-09-19T04:40:10;20.20;63.50
50758;DHT22;36732;47.980;11.652;2023-09-19T04:42:45;20.20;63.50
50758;DHT22;36732;47.980;11.652;2023-09-19T04:45:11;20.20;63.30
50758;DHT22;36732;47.980;11.652;2023-09-19T04:47:38;20.20;63.30
50758;DHT22;36732;47.980;11.652;2023-09-19T04:50:08;20.20;63.20
50758;DHT22;36732;47.980;11.652;2023-09-19T04:52:41;20.10;63.20
50758;DHT22;36732;47.980;11.652;2023-09-19T04:55:12;20.20;63.20
50758;DHT22;36732;47.980;11.652;2023-09-19T04:57:46;20.10;63.10
50758;DHT22;36732;47.980;11.652;2023-09-19T05:00:13;20.10;63.00
50758;DHT22;36732;47.980;11.652;2023-09-19T05:02:42;20.10;62.90
50758;DHT22;36732;47.980;11.652;2023-09-19T05:05:09;20.10;62.90
50758;DHT22;36732;47.980;11.652;2023-09-19T05:07:42;20.10;62.90
50758;DHT22;36732;47.980;11.652;2023-09-19T05:10:09;20.10;62.80
50758;DHT22;36732;47.980;11.652;2023-09-19T05:12:39;20.10;62.80
50758;DHT22;36732;47.980;11.652;2023-09-19T05:15:05;20.10;62.70
50758;DHT22;36732;47.980;11.652;2023-09-19T05:17:35;20.10;62.70
50758;DHT22;36732;47.980;11.652;2023-09-19T05:20:02;20.10;62.60
50758;DHT22;36732;47.980;11.652;2023-09-19T05:22:32;20.10;62.60
50758;DHT22;36732;47.980;11.652;2023-09-19T05:25:00;20.10;62.60
50758;DHT22;36732;47.980;11.652;2023-09-19T05:27:28;20.10;62.60
50758;DHT22;36732;47.980;11.652;2023-09-19T05:29:54;20.10;62.60
50758;DHT22;36732;47.980;11.652;2023-09-19T05:32:21;20.10;62.50
50758;DHT22;36732;47.980;11.652;2023-09-19T05:34:47;20.10;62.60
50758;DHT22;36732;47.980;11.652;2023-09-19T05:37:13;20.10;62.60
50758;DHT22;36732;47.980;11.652;2023-09-19T05:39:41;20.10;62.60
50758;DHT22;36732;47.980;11.652;2023-09-19T05:42:08;20.10;62.70
50758;DHT22;36732;47.980;11.652;2023-09-19T05:44:33;20.10;62.60
50758;DHT22;36732;47.980;11.652;2023-09-19T05:46:59;20.10;62.60
50758;DHT22;36732;47.980;11.652;2023-09-19T05:49:25;20.20;62.70
50758;DHT22;36732;47.980;11.652;2023-09-19T05:51:51;20.20;62.60
50758;DHT22;36732;47.980;11.652;2023-09-19T05:54:21;20.20;62.60
50758;DHT22;36732;47.980;11.652;2023-09-19T05:56:47;20.20;62.70
50758;DHT22;36732;47.980;11.652;2023-09-19T05:59:14;20.20;62.70
50758;DHT22;36732;47.980;11.652;2023-09-19T06:01:44;20.20;62.60
50758;DHT22;36732;47.980;11.652;2023-09-19T06:04:09;20.20;62.60
50758;DHT22;36732;47.980;11.652;2023-09-19T06:06:35;20.20;62.60
50758;DHT22;36732;47.980;11.652;2023-09-19T06:09:04;20.20;62.50
50758;DHT22;36732;47.980;11.652;2023-09-19T06:11:31;20.20;62.70
50758;DHT22;36732;47.980;11.652;2023-09-19T06:14:00;20.20;62.70
50758;DHT22;36732;47.980;11.652;2023-09-19T06:16:30;20.20;62.90
50758;DHT22;36732;47.980;11.652;2023-09-19T06:18:58;20.20;62.90
50758;DHT22;36732;47.980;11.652;2023-09-19T06:21:27;20.30;63.00
50758;DHT22;36732;47.980;11.652;2023-09-19T06:23:56;20.30;63.00
50758;DHT22;36732;47.980;11.652;2023-09-19T06:26:23;20.30;63.10
50758;DHT22;36732;47.980;11.652;2023-09-19T06:28:49;20.30;63.20
50758;DHT22;36732;47.980;11.652;2023-09-19T06:31:14;20.30;63.30
50758;DHT22;36732;47.980;11.652;2023-09-19T06:33:40;20.30;63.20
50758;DHT22;36732;47.980;11.652;2023-09-19T06:36:06;20.30;63.40
50758;DHT22;36732;47.980;11.652;2023-09-19T06:38:33;20.30;63.30
50758;DHT22;36732;47.980;11.652;2023-09-19T06:41:02;20.40;63.40
50758;DHT22;36732;47.980;11.652;2023-09-19T06:43:32;20.40;63.40
50758;DHT22;36732;47.980;11.652;2023-09-19T06:46:02;20.40;63.40
50758;DHT22;36732;47.980;11.652;2023-09-19T06:48:29;20.40;63.40
50758;DHT22;36732;47.980;11.652;2023-09-19T06:50:58;20.50;63.40
50758;DHT22;36732;47.980;11.652;2023-09-19T06:53:30;20.50;63.40
50758;DHT22;36732;47.980;11.652;2023-09-19T06:55:57;20.50;63.30
50758;DHT22;36732;47.980;11.652;2023-09-19T06:58:23;20.50;63.30
50758;DHT22;36732;47.980;11.652;2023-09-19T07:00:49;20.60;63.20
50758;DHT22;36732;47.980;11.652;2023-09-19T07:03:15;20.60;63.20
50758;DHT22;36732;47.980;11.652;2023-09-19T07:05:44;20.60;63.20
50758;DHT22;36732;47.980;11.652;2023-09-19T07:08:10;20.60;63.10
50758;DHT22;36732;47.980;11.652;2023-09-19T07:10:37;20.60;63.00
50758;DHT22;36732;47.980;11.652;2023-09-19T07:13:07;20.70;63.00
50758;DHT22;36732;47.980;11.652;2023-09-19T07:15:36;20.60;62.90
50758;DHT22;36732;47.980;11.652;2023-09-19T07:18:12;20.70;62.90
50758;DHT22;36732;47.980;11.652;2023-09-19T07:20:42;20.60;62.80
50758;DHT22;36732;47.980;11.652;2023-09-19T07:23:19;20.70;62.90
50758;DHT22;36732;47.980;11.652;2023-09-19T07:25:47;20.70;62.80
50758;DHT22;36732;47.980;11.652;2023-09-19T07:28:14;20.70;62.80
50758;DHT22;36732;47.980;11.652;2023-09-19T07:30:40;20.70;62.70
50758;DHT22;36732;47.980;11.652;2023-09-19T07:33:07;20.70;62.70
50758;DHT22;36732;47.980;11.652;2023-09-19T07:35:37;20.80;62.70
50758;DHT22;36732;47.980;11.652;2023-09-19T07:38:06;20.70;62.60
50758;DHT22;36732;47.980;11.652;2023-09-19T07:40:32;20.80;62.50
50758;DHT22;36732;47.980;11.652;2023-09-19T07:42:58;20.80;62.50
50758;DHT22;36732;47.980;11.652;2023-09-19T07:45:34;20.80;62.50
50758;DHT22;36732;47.980;11.652;2023-09-19T07:47:59;20.80;62.70
50758;DHT22;36732;47.980;11.652;2023-09-19T07:50:29;20.80;62.70
50758;DHT22;36732;47.980;11.652;2023-09-19T07:52:55;20.80;62.70
50758;DHT22;36732;47.980;11.652;2023-09-19T07:55:22;20.80;62.70
50758;DHT22;36732;47.980;11.652;2023-09-19T07:57:52;20.80;62.70
50758;DHT22;36732;47.980;11.652;2023-09-19T08:00:18;20.80;62.70
50758;DHT22;36732;47.980;11.652;2023-09-19T08:02:45;20.80;62.70
50758;DHT22;36732;47.980;11.652;2023-09-19T08:05:11;20.80;62.60
50758;DHT22;36732;47.980;11.652;2023-09-19T08:07:42;20.80;62.60
50758;DHT22;36732;47.980;11.652;2023-09-19T08:10:10;20.90;62.50
50758;DHT22;36732;47.980;11.652;2023-09-19T08:12:39;20.80;62.40
50758;DHT22;36732;47.980;11.652;2023-09-19T08:15:19;20.90;62.40
50758;DHT22;36732;47.980;11.652;2023-09-19T08:17:46;20.90;62.40
50758;DHT22;36732;47.980;11.652;2023-09-19T08:20:12;20.90;62.40
50758;DHT22;36732;47.980;11.652;2023-09-19T08:22:51;20.90;62.40
50758;DHT22;36732;47.980;11.652;2023-09-19T08:25:20;20.90;62.30
50758;DHT22;36732;47.980;11.652;2023-09-19T08:27:47;20.90;62.30
50758;DHT22;36732;47.980;11.652;2023-09-19T08:30:16;20.90;62.20
50758;DHT22;36732;47.980;11.652;2023-09-19T08:32:43;21.00;62.20
50758;DHT22;36732;47.980;11.652;2023-09-19T08:35:10;20.90;62.10
50758;DHT22;36732;47.980;11.652;2023-09-19T08:37:36;21.00;62.10
50758;DHT22;36732;47.980;11.652;2023-09-19T08:40:02;21.00;62.10
50758;DHT22;36732;47.980;11.652;2023-09-19T08:42:28;21.00;62.10
50758;DHT22;36732;47.980;11.652;2023-09-19T08:44:55;21.00;62.10
50758;DHT22;36732;47.980;11.652;2023-09-19T08:47:50;21.00;62.10
50758;DHT22;36732;47.980;11.652;2023-09-19T08:50:28;21.00;62.00
50758;DHT22;36732;47.980;11.652;2023-09-19T08:52:55;21.00;62.00
50758;DHT22;36732;47.980;11.652;2023-09-19T08:55:27;21.00;62.00
50758;DHT22;36732;47.980;11.652;2023-09-19T08:58:03;21.00;62.10
50758;DHT22;36732;47.980;11.652;2023-09-19T09:00:30;21.10;61.90
50758;DHT22;36732;47.980;11.652;2023-09-19T09:02:57;21.10;62.00
50758;DHT22;36732;47.980;11.652;2023-09-19T09:05:24;21.10;61.90
50758;DHT22;36732;47.980;11.652;2023-09-19T09:07:52;21.10;61.90
50758;DHT22;36732;47.980;11.652;2023-09-19T09:10:18;21.10;61.90
50758;DHT22;36732;47.980;11.652;2023-09-19T09:12:50;21.10;61.90
50758;DHT22;36732;47.980;11.652;2023-09-19T09:15:19;21.10;61.90
50758;DHT22;36732;47.980;11.652;2023-09-19T09:17:48;21.10;61.90
50758;DHT22;36732;47.980;11.652;2023-09-19T09:20:15;21.20;61.90
50758;DHT22;36732;47.980;11.652;2023-09-19T09:22:55;21.20;62.50
50758;DHT22;36732;47.980;11.652;2023-09-19T09:28:27;21.20;61.60
50758;DHT22;36732;47.980;11.652;2023-09-19T09:30:55;21.20;61.60
50758;DHT22;36732;47.980;11.652;2023-09-19T09:33:21;21.20;61.60
50758;DHT22;36732;47.980;11.652;2023-09-19T09:36:01;21.20;61.50
50758;DHT22;36732;47.980;11.652;2023-09-19T09:38:45;21.30;61.40
50758;DHT22;36732;47.980;11.652;2023-09-19T09:41:15;21.30;61.20
50758;DHT22;36732;47.980;11.652;2023-09-19T09:43:53;21.30;61.30
50758;DHT22;36732;47.980;11.652;2023-09-19T09:46:20;21.30;61.20
50758;DHT22;36732;47.980;11.652;2023-09-19T09:51:58;21.30;60.70
50758;DHT22;36732;47.980;11.652;2023-09-19T09:54:31;21.30;60.40
50758;DHT22;36732;47.980;11.652;2023-09-19T09:57:07;21.30;60.60
50758;DHT22;36732;47.980;11.652;2023-09-19T10:02:19;21.30;60.60
50758;DHT22;36732;47.980;11.652;2023-09-19T10:04:51;21.30;60.80
50758;DHT22;36732;47.980;11.652;2023-09-19T10:07:25;21.30;60.90
50758;DHT22;36732;47.980;11.652;2023-09-19T10:09:53;21.30;60.90
50758;DHT22;36732;47.980;11.652;2023-09-19T10:12:26;21.30;60.90
50758;DHT22;36732;47.980;11.652;2023-09-19T10:14:56;21.30;61.00
50758;DHT22;36732;47.980;11.652;2023-09-19T10:17:25;21.30;61.10
50758;DHT22;36732;47.980;11.652;2023-09-19T10:19:56;21.30;61.10
50758;DHT22;36732;47.980;11.652;2023-09-19T10:22:28;21.40;60.80
50758;DHT22;36732;47.980;11.652;2023-09-19T10:24:57;21.40;60.70
50758;DHT22;36732;47.980;11.652;2023-09-19T10:27:26;21.40;60.90
50758;DHT22;36732;47.980;11.652;2023-09-19T10:29:52;21.40;60.80
50758;DHT22;36732;47.980;11.652;2023-09-19T10:32:22;21.50;60.80
50758;DHT22;36732;47.980;11.652;2023-09-19T10:34:49;21.50;61.30
50758;DHT22;36732;47.980;11.652;2023-09-19T10:37:16;21.50;60.50
50758;DHT22;36732;47.980;11.652;2023-09-19T10:39:46;21.50;60.40
50758;DHT22;36732;47.980;11.652;2023-09-19T10:42:18;21.60;60.30
50758;DHT22;36732;47.980;11.652;2023-09-19T10:44:47;21.60;60.30
50758;DHT22;36732;47.980;11.652;2023-09-19T10:47:19;21.60;60.20
50758;DHT22;36732;47.980;11.652;2023-09-19T10:49:49;21.60;60.00
50758;DHT22;36732;47.980;11.652;2023-09-19T10:52:19;21.70;59.80
50758;DHT22;36732;47.980;11.652;2023-09-19T10:54:48;21.70;59.70
50758;DHT22;36732;47.980;11.652;2023-09-19T10:57:22;21.70;59.70
50758;DHT22;36732;47.980;11.652;2023-09-19T11:00:05;21.70;59.30
50758;DHT22;36732;47.980;11.652;2023-09-19T11:03:28;21.80;59.20
50758;DHT22;36732;47.980;11.652;2023-09-19T11:06:16;21.80;58.70
50758;DHT22;36732;47.980;11.652;2023-09-19T11:09:03;21.80;58.60
50758;DHT22;36732;47.980;11.652;2023-09-19T11:30:33;21.90;58.00
50758;DHT22;36732;47.980;11.652;2023-09-19T11:33:21;21.90;58.30
50758;DHT22;36732;47.980;11.652;2023-09-19T11:43:55;21.80;57.60
50758;DHT22;36732;47.980;11.652;2023-09-19T11:49:26;21.80;57.60
50758;DHT22;36732;47.980;11.652;2023-09-19T11:52:00;21.80;57.60
50758;DHT22;36732;47.980;11.652;2023-09-19T11:54:31;21.90;58.10
50758;DHT22;36732;47.980;11.652;2023-09-19T11:56:58;21.90;58.20
50758;DHT22;36732;47.980;11.652;2023-09-19T11:59:29;21.90;58.20
50758;DHT22;36732;47.980;11.652;2023-09-19T12:01:57;21.90;58.00
50758;DHT22;36732;47.980;11.652;2023-09-19T12:04:39;21.90;58.00
50758;DHT22;36732;47.980;11.652;2023-09-19T12:07:13;21.90;57.50
50758;DHT22;36732;47.980;11.652;2023-09-19T12:10:05;21.90;57.90
50758;DHT22;36732;47.980;11.652;2023-09-19T12:12:34;21.90;57.30
50758;DHT22;36732;47.980;11.652;2023-09-19T12:14:59;21.90;57.20
50758;DHT22;36732;47.980;11.652;2023-09-19T12:17:38;21.90;57.30
50758;DHT22;36732;47.980;11.652;2023-09-19T12:20:06;21.90;56.90
50758;DHT22;36732;47.980;11.652;2023-09-19T12:22:43;22.00;57.50
50758;DHT22;36732;47.980;11.652;2023-09-19T12:25:10;22.00;57.30
50758;DHT22;36732;47.980;11.652;2023-09-19T12:27:50;22.00;57.50
50758;DHT22;36732;47.980;11.652;2023-09-19T12:30:19;22.00;57.00
50758;DHT22;36732;47.980;11.652;2023-09-19T12:32:46;22.00;57.50
50758;DHT22;36732;47.980;11.652;2023-09-19T12:35:28;22.00;57.60
50758;DHT22;36732;47.980;11.652;2023-09-19T12:37:55;22.00;57.40
50758;DHT22;36732;47.980;11.652;2023-09-19T12:40:22;22.10;57.60
50758;DHT22;36732;47.980;11.652;2023-09-19T12:42:54;22.10;57.20
50758;DHT22;36732;47.980;11.652;2023-09-19T12:45:33;22.10;57.10
50758;DHT22;36732;47.980;11.652;2023-09-19T12:48:25;22.10;57.10
50758;DHT22;36732;47.980;11.652;2023-09-19T12:51:04;22.10;56.80
50758;DHT22;36732;47.980;11.652;2023-09-19T12:53:43;22.10;56.90
50758;DHT22;36732;47.980;11.652;2023-09-19T12:56:14;22.20;56.70
50758;DHT22;36732;47.980;11.652;2023-09-19T12:58:54;22.10;56.70
50758;DHT22;36732;47.980;11.652;2023-09-19T13:01:25;22.10;56.40
50758;DHT22;36732;47.980;11.652;2023-09-19T13:04:10;22.20;56.90
50758;DHT22;36732;47.980;11.652;2023-09-19T13:06:46;22.20;57.20
50758;DHT22;36732;47.980;11.652;2023-09-19T13:09:15;22.20;56.70
50758;DHT22;36732;47.980;11.652;2023-09-19T13:11:42;22.20;56.50
50758;DHT22;36732;47.980;11.652;2023-09-19T13:17:05;22.20;56.20
50758;DHT22;36732;47.980;11.652;2023-09-19T13:22:43;22.20;56.50
50758;DHT22;36732;47.980;11.652;2023-09-19T13:25:20;22.20;55.90
50758;DHT22;36732;47.980;11.652;2023-09-19T13:27:49;22.20;56.70
50758;DHT22;36732;47.980;11.652;2023-09-19T13:30:18;22.20;56.10
50758;DHT22;36732;47.980;11.652;2023-09-19T13:32:44;22.20;56.20
50758;DHT22;36732;47.980;11.652;2023-09-19T13:35:15;22.30;56.20
50758;DHT22;36732;47.980;11.652;2023-09-19T13:37:42;22.30;56.00
50758;DHT22;36732;47.980;11.652;2023-09-19T13:40:09;22.30;55.90
50758;DHT22;36732;47.980;11.652;2023-09-19T13:42:36;22.30;55.80
50758;DHT22;36732;47.980;11.652;2023-09-19T13:45:04;22.30;56.40
50758;DHT22;36732;47.980;11.652;2023-09-19T13:47:31;22.30;56.30
50758;DHT22;36732;47.980;11.652;2023-09-19T13:49:58;22.30;55.80
50758;DHT22;36732;47.980;11.652;2023-09-19T13:52:24;22.30;55.90
50758;DHT22;36732;47.980;11.652;2023-09-19T13:54:54;22.30;56.00
50758;DHT22;36732;47.980;11.652;2023-09-19T13:57:22;22.30;56.00
50758;DHT22;36732;47.980;11.652;2023-09-19T13:59:49;22.40;56.00
50758;DHT22;36732;47.980;11.652;2023-09-19T14:02:15;22.40;56.00
50758;DHT22;36732;47.980;11.652;2023-09-19T14:04:43;22.40;56.00
50758;DHT22;36732;47.980;11.652;2023-09-19T14:07:12;22.40;55.50
50758;DHT22;36732;47.980;11.652;2023-09-19T14:09:37;22.40;55.50
50758;DHT22;36732;47.980;11.652;2023-09-19T14:12:03;22.40;55.60
50758;DHT22;36732;47.980;11.652;2023-09-19T14:14:29;22.40;55.50
50758;DHT22;36732;47.980;11.652;2023-09-19T14:16:55;22.40;55.60
50758;DHT22;36732;47.980;11.652;2023-09-19T14:19:21;22.40;55.70
50758;DHT22;36732;47.980;11.652;2023-09-19T14:21:47;22.40;55.50
50758;DHT22;36732;47.980;11.652;2023-09-19T14:24:19;22.40;55.50
50758;DHT22;36732;47.980;11.652;2023-09-19T14:26:45;22.50;55.00
50758;DHT22;36732;47.980;11.652;2023-09-19T14:29:11;22.50;55.30
50758;DHT22;36732;47.980;11.652;2023-09-19T14:31:37;22.50;55.40
50758;DHT22;36732;47.980;11.652;2023-09-19T14:34:05;22.50;55.30
50758;DHT22;36732;47.980;11.652;2023-09-19T14:36:32;22.50;55.30
50758;DHT22;36732;47.980;11.652;2023-09-19T14:38:58;22.50;55.30
50758;DHT22;36732;47.980;11.652;2023-09-19T14:41:24;22.50;55.30
50758;DHT22;36732;47.980;11.652;2023-09-19T14:43:51;22.50;55.40
50758;DHT22;36732;47.980;11.652;2023-09-19T14:46:18;22.60;55.40
50758;DHT22;36732;47.980;11.652;2023-09-19T14:48:45;22.60;55.50
50758;DHT22;36732;47.980;11.652;2023-09-19T14:51:14;22.60;55.50
50758;DHT22;36732;47.980;11.652;2023-09-19T14:53:40;22.60;55.50
50758;DHT22;36732;47.980;11.652;2023-09-19T14:56:10;22.60;55.30
50758;DHT22;36732;47.980;11.652;2023-09-19T14:58:37;22.60;55.10
50758;DHT22;36732;47.980;11.652;2023-09-19T15:01:07;22.60;55.20
50758;DHT22;36732;47.980;11.652;2023-09-19T15:03:36;22.60;55.10
50758;DHT22;36732;47.980;11.652;2023-09-19T15:06:03;22.60;55.00
50758;DHT22;36732;47.980;11.652;2023-09-19T15:08:35;22.60;55.00
50758;DHT22;36732;47.980;11.652;2023-09-19T15:11:04;22.70;55.60
50758;DHT22;36732;47.980;11.652;2023-09-19T15:13:35;22.70;55.00
50758;DHT22;36732;47.980;11.652;2023-09-19T15:16:03;22.70;54.70
50758;DHT22;36732;47.980;11.652;2023-09-19T15:18:30;22.70;54.90
50758;DHT22;36732;47.980;11.652;2023-09-19T15:20:57;22.70;54.80
50758;DHT22;36732;47.980;11.652;2023-09-19T15:23:25;22.70;54.90
50758;DHT22;36732;47.980;11.652;2023-09-19T15:25:51;22.70;54.80
50758;DHT22;36732;47.980;11.652;2023-09-19T15:28:17;22.70;54.80
50758;DHT22;36732;47.980;11.652;2023-09-19T15:30:43;22.70;54.90
50758;DHT22;36732;47.980;11.652;2023-09-19T15:33:09;22.70;54.90
50758;DHT22;36732;47.980;11.652;2023-09-19T15:35:35;22.80;54.80
50758;DHT22;36732;47.980;11.652;2023-09-19T15:38:03;22.80;54.70
50758;DHT22;36732;47.980;11.652;2023-09-19T15:40:29;22.80;54.60
50758;DHT22;36732;47.980;11.652;2023-09-19T15:42:55;22.80;54.50
50758;DHT22;36732;47.980;11.652;2023-09-19T15:45:24;22.80;54.40
50758;DHT22;36732;47.980;11.652;2023-09-19T15:47:50;22.80;54.20
50758;DHT22;36732;47.980;11.652;2023-09-19T15:50:16;22.80;54.20
50758;DHT22;36732;47.980;11.652;2023-09-19T15:52:43;22.80;54.20
50758;DHT22;36732;47.980;11.652;2023-09-19T15:55:09;22.80;54.20
50758;DHT22;36732;47.980;11.652;2023-09-19T15:57:38;22.80;54.20
50758;DHT22;36732;47.980;11.652;2023-09-19T16:00:05;22.80;54.00
50758;DHT22;36732;47.980;11.652;2023-09-19T16:02:38;22.80;54.10
50758;DHT22;36732;47.980;11.652;2023-09-19T16:05:04;22.90;54.10
50758;DHT22;36732;47.980;11.652;2023-09-19T16:07:32;22.80;54.00
50758;DHT22;36732;47.980;11.652;2023-09-19T16:09:59;22.80;54.00
50758;DHT22;36732;47.980;11.652;2023-09-19T16:12:26;22.80;54.00
50758;DHT22;36732;47.980;11.652;2023-09-19T16:14:52;22.90;54.00
50758;DHT22;36732;47.980;11.652;2023-09-19T16:17:17;22.80;54.10
50758;DHT22;36732;47.980;11.652;2023-09-19T16:19:43;22.80;54.20
50758;DHT22;36732;47.980;11.652;2023-09-19T16:22:10;22.80;54.10
50758;DHT22;36732;47.980;11.652;2023-09-19T16:24:35;22.80;54.10
50758;DHT22;36732;47.980;11.652;2023-09-19T16:27:01;22.80;54.10
50758;DHT22;36732;47.980;11.652;2023-09-19T16:29:27;22.80;54.10